Time;durP1;ratioP1;P1;durP2;ratioP2;P2;SDS_P1;SDS_P2;PMS_P1;PMS_P2;Temp;Humidity;BMP_temperature;BMP_pressure;BME280_temperature;BME280_humidity;BME280_pressure;Samples;Min_cycle;Max_cycle;Signal;HPM_P1;HPM_P2
2024/02/23 00:00:57;;;;;;;6.70;4.10;;;;;;;12.65;56.10;101692.08;107097;1265;22526;-56
2024/02/23 00:03:24;;;;;;;7.70;3.90;;;;;;;12.64;56.07;101693.83;107099;1266;22526;-56
2024/02/23 00:05:51;;;;;;;6.40;4.20;;;;;;;12.65;56.12;101693.64;107034;1256;25479;-56
2024/02/23 00:08:19;;;;;;;8.20;4.80;;;;;;;12.65;56.14;101692.92;106271;1265;1003675;-56
2024/02/23 00:10:46;;;;;;;8.50;4.50;;;;;;;12.65;56.11;101692.23;106095;1274;1004913;-56
2024/02/23 00:13:13;;;;;;;7.20;4.90;;;;;;;12.66;56.18;101685.79;107163;1263;24394;-56
2024/02/23 00:15:40;;;;;;;7.50;5.00;;;;;;;12.66;56.18;101684.74;107182;1259;25432;-56
2024/02/23 00:18:08;;;;;;;6.90;5.30;;;;;;;12.66;56.20;101680.04;106749;1260;25355;-56
2024/02/23 00:20:36;;;;;;;11.40;6.30;;;;;;;12.66;56.27;101680.02;107150;1259;25431;-56
2024/02/23 00:23:03;;;;;;;8.40;5.90;;;;;;;12.67;56.38;101685.44;107124;1255;25341;-56
2024/02/23 00:25:30;;;;;;;10.20;6.30;;;;;;;12.67;56.40;101687.86;106886;1266;22556;-56
2024/02/23 00:27:56;;;;;;;10.20;6.50;;;;;;;12.67;56.49;101685.95;107110;1270;25352;-56
2024/02/23 00:30:23;;;;;;;10.50;6.70;;;;;;;12.67;56.55;101685.27;107002;1267;25351;-56
2024/02/23 00:32:51;;;;;;;11.90;7.70;;;;;;;12.67;56.64;101685.95;106959;1257;22527;-56
2024/02/23 00:35:18;;;;;;;12.70;7.90;;;;;;;12.68;56.64;101684.53;106924;1268;25341;-56
2024/02/23 00:37:45;;;;;;;12.50;8.00;;;;;;;12.68;56.73;101677.92;106906;1259;22543;-56
2024/02/23 00:40:13;;;;;;;12.20;8.50;;;;;;;12.70;56.73;101678.77;107104;1258;25501;-56
2024/02/23 00:42:39;;;;;;;11.90;7.90;;;;;;;12.72;56.75;101681.88;107149;1256;22527;-56
2024/02/23 00:45:08;;;;;;;15.30;9.20;;;;;;;12.74;56.72;101679.92;106928;1267;25418;-56
2024/02/23 00:47:35;;;;;;;13.10;8.80;;;;;;;12.74;56.85;101671.73;106974;1269;25383;-56
2024/02/23 00:50:02;;;;;;;12.90;9.40;;;;;;;12.74;56.87;101671.20;106931;1259;25363;-56
2024/02/23 00:52:29;;;;;;;15.60;10.50;;;;;;;12.75;56.96;101670.86;106960;1270;22551;-56
2024/02/23 00:54:56;;;;;;;14.10;10.50;;;;;;;12.76;57.05;101662.13;107105;1267;23909;-56
2024/02/23 00:57:29;;;;;;;18.00;10.90;;;;;;;12.76;57.04;101659.33;107106;1269;25401;-56
2024/02/23 00:59:57;;;;;;;16.40;11.00;;;;;;;12.77;57.07;101656.71;107200;1267;25405;-56
2024/02/23 01:02:24;;;;;;;15.20;12.00;;;;;;;12.77;57.18;101653.41;107102;1256;25498;-56
2024/02/23 01:04:56;;;;;;;20.20;12.40;;;;;;;12.77;57.27;101652.89;107114;1263;25351;-56
2024/02/23 01:07:23;;;;;;;17.00;12.40;;;;;;;12.78;57.33;101652.00;107102;1265;25501;-56
2024/02/23 01:09:51;;;;;;;18.20;12.90;;;;;;;12.79;57.35;101653.89;107071;1256;25351;-56
2024/02/23 01:12:18;;;;;;;20.30;12.50;;;;;;;12.80;57.43;101650.05;107037;1266;25494;-56
2024/02/23 01:14:45;;;;;;;20.00;14.30;;;;;;;12.80;57.44;101645.67;106830;1268;25399;-56
2024/02/23 01:17:12;;;;;;;17.20;13.40;;;;;;;12.80;57.48;101646.55;107032;1265;25371;-57
2024/02/23 01:19:44;;;;;;;20.10;14.50;;;;;;;12.80;57.48;101644.48;107009;1265;25504;-56
2024/02/23 01:22:11;;;;;;;;;;;;;;;12.80;57.51;101640.48;107130;1260;24386;-56
2024/02/23 01:24:38;;;;;;;20.60;13.90;;;;;;;12.80;57.60;101645.16;107087;1256;25431;-57
2024/02/23 01:27:05;;;;;;;20.10;14.70;;;;;;;12.80;57.68;101646.21;107058;1266;25355;-57
2024/02/23 01:29:32;;;;;;;20.10;14.60;;;;;;;12.79;57.70;101647.98;107079;1257;25355;-56
2024/02/23 01:31:59;;;;;;;18.80;14.10;;;;;;;12.80;57.73;101651.62;106835;1259;25366;-57
2024/02/23 01:34:27;;;;;;;20.70;14.70;;;;;;;12.80;57.69;101653.00;107122;1268;25509;-57
2024/02/23 01:36:54;;;;;;;18.30;14.80;;;;;;;12.80;57.79;101653.35;106975;1256;25572;-58
2024/02/23 01:39:21;;;;;;;18.90;14.30;;;;;;;12.80;57.79;101651.27;107131;1265;22645;-56
2024/02/23 01:41:48;;;;;;;19.80;14.00;;;;;;;12.82;57.78;101645.84;107153;1259;25498;-56
2024/02/23 01:44:17;;;;;;;22.20;15.40;;;;;;;12.82;57.80;101643.75;106119;1272;1003457;-57
2024/02/23 01:46:44;;;;;;;20.00;14.60;;;;;;;12.82;57.85;101644.44;107115;1260;25537;-56
2024/02/23 01:49:11;;;;;;;21.60;14.90;;;;;;;12.81;57.88;101643.75;107132;1261;23894;-56
2024/02/23 01:51:38;;;;;;;25.50;14.70;;;;;;;12.81;57.90;101642.55;107015;1268;25500;-57
2024/02/23 01:54:05;;;;;;;18.00;14.40;;;;;;;12.81;57.84;101642.53;106871;1269;25366;-57
2024/02/23 01:56:33;;;;;;;20.30;13.70;;;;;;;12.81;58.02;101638.02;107137;1269;25341;-57
2024/02/23 01:59:03;;;;;;;22.10;15.60;;;;;;;12.81;57.96;101633.15;107137;1266;25342;-57
2024/02/23 02:01:30;;;;;;;21.80;14.10;;;;;;;12.81;57.98;101631.58;107024;1256;25352;-56
2024/02/23 02:03:58;;;;;;;23.70;14.70;;;;;;;12.81;58.00;101630.88;107093;1263;22629;-57
2024/02/23 02:06:26;;;;;;;19.00;14.70;;;;;;;12.82;57.90;101623.70;106886;1266;25356;-56
2024/02/23 02:08:54;;;;;;;18.70;14.50;;;;;;;12.83;57.90;101622.15;107087;1263;25498;-57
2024/02/23 02:11:21;;;;;;;20.50;14.60;;;;;;;12.82;57.92;101616.57;107045;1263;25340;-57
2024/02/23 02:13:48;;;;;;;18.70;13.90;;;;;;;12.83;57.92;101609.95;107113;1269;25523;-56
2024/02/23 02:16:15;;;;;;;25.80;15.30;;;;;;;12.83;57.96;101607.35;107219;1269;25344;-56
2024/02/23 02:18:44;;;;;;;27.60;15.90;;;;;;;12.83;57.98;101603.69;107080;1258;25353;-57
2024/02/23 02:21:11;;;;;;;21.30;14.00;;;;;;;12.83;58.01;101607.50;107079;1259;23294;-57
2024/02/23 02:23:38;;;;;;;21.40;14.50;;;;;;;12.83;57.96;101605.06;106058;1267;1003055;-57
2024/02/23 02:26:05;;;;;;;20.00;14.00;;;;;;;12.83;57.98;101607.67;107043;1256;22572;-57
2024/02/23 02:28:32;;;;;;;18.80;14.40;;;;;;;12.84;58.07;101609.05;106780;1264;25337;-57
2024/02/23 02:30:59;;;;;;;22.90;14.20;;;;;;;12.83;58.06;101610.99;107126;1255;24450;-56
2024/02/23 02:33:26;;;;;;;18.70;13.70;;;;;;;12.85;58.13;101612.53;107006;1262;25523;-57
2024/02/23 02:35:53;;;;;;;19.20;14.70;;;;;;;12.86;58.14;101610.77;107177;1265;25359;-57
2024/02/23 02:38:20;;;;;;;19.40;14.80;;;;;;;12.87;58.12;101609.52;106951;1265;25496;-56
2024/02/23 02:40:47;;;;;;;23.50;15.40;;;;;;;12.87;58.18;101611.78;107036;1266;25331;-57
2024/02/23 02:43:14;;;;;;;22.80;14.50;;;;;;;12.88;58.13;101609.32;107066;1256;22650;-56
2024/02/23 02:45:41;;;;;;;21.70;13.80;;;;;;;12.90;58.14;101607.91;107058;1269;25410;-57
2024/02/23 02:48:10;;;;;;;19.40;14.20;;;;;;;12.91;58.09;101608.94;106974;1256;25411;-56
2024/02/23 02:50:37;;;;;;;22.00;14.70;;;;;;;12.92;58.08;101602.66;107065;1263;25341;-57
2024/02/23 02:53:04;;;;;;;17.50;13.60;;;;;;;12.92;58.09;101596.03;107186;1264;25337;-57
2024/02/23 02:55:31;;;;;;;24.30;14.10;;;;;;;12.92;58.11;101593.23;107063;1267;25492;-57
2024/02/23 02:57:58;;;;;;;17.40;13.00;;;;;;;12.93;58.05;101588.52;106835;1260;22655;-57
2024/02/23 03:00:25;;;;;;;20.40;14.10;;;;;;;12.93;58.06;101592.52;107040;1256;26283;-56
2024/02/23 03:02:53;;;;;;;25.00;14.70;;;;;;;12.94;58.15;101595.63;107077;1265;25335;-57
2024/02/23 03:05:20;;;;;;;19.30;13.80;;;;;;;12.95;58.08;101598.41;107068;1259;25369;-57
2024/02/23 03:07:47;;;;;;;20.30;14.50;;;;;;;12.95;58.12;101605.20;106808;1267;25341;-56
2024/02/23 03:10:15;;;;;;;20.30;13.80;;;;;;;12.96;58.08;101609.90;107113;1267;23233;-57
2024/02/23 03:12:42;;;;;;;24.20;14.40;;;;;;;12.96;58.11;101609.70;107047;1256;25347;-57
2024/02/23 03:15:12;;;;;;;20.00;13.00;;;;;;;12.97;58.08;101613.86;107035;1266;25341;-56
2024/02/23 03:17:39;;;;;;;25.20;13.80;;;;;;;12.98;58.09;101614.36;107099;1269;25344;-56
2024/02/23 03:20:11;;;;;;;22.70;14.50;;;;;;;12.98;58.01;101610.52;107062;1262;25352;-57
2024/02/23 03:22:38;;;;;;;18.80;13.30;;;;;;;12.98;58.03;101610.01;107070;1261;25369;-56
2024/02/23 03:25:09;;;;;;;19.80;13.50;;;;;;;12.99;58.06;101603.56;107054;1256;25565;-57
2024/02/23 03:27:36;;;;;;;17.20;13.60;;;;;;;12.99;58.02;101600.25;106904;1262;22638;-56
2024/02/23 03:30:10;;;;;;;23.20;14.00;;;;;;;12.99;58.01;101602.00;107044;1269;25504;-57
2024/02/23 03:32:38;;;;;;;23.40;13.00;;;;;;;12.98;58.00;101599.56;107019;1271;25363;-57
2024/02/23 03:35:06;;;;;;;20.30;14.30;;;;;;;12.98;58.05;101595.20;107137;1257;25380;-56
2024/02/23 03:37:34;;;;;;;20.50;13.90;;;;;;;12.98;58.10;101597.65;107182;1257;25363;-57
2024/02/23 03:40:01;;;;;;;20.00;13.40;;;;;;;12.99;58.06;101602.52;106103;1263;1002997;-56
2024/02/23 03:42:28;;;;;;;20.50;14.00;;;;;;;13.00;58.05;101600.95;106178;1267;1002857;-57
2024/02/23 03:44:55;;;;;;;21.90;13.80;;;;;;;13.01;58.11;101591.34;107101;1264;25376;-56
2024/02/23 03:47:22;;;;;;;27.70;15.40;;;;;;;13.02;58.09;101596.54;106361;1257;1002980;-56
2024/02/23 03:49:50;;;;;;;24.90;14.10;;;;;;;13.02;58.08;101596.02;107036;1265;25500;-56
2024/02/23 03:52:17;;;;;;;20.20;14.30;;;;;;;13.01;58.10;101598.46;106782;1257;22525;-56
2024/02/23 03:54:44;;;;;;;19.50;14.30;;;;;;;13.01;58.17;101599.86;107074;1254;25487;-56
2024/02/23 03:57:11;;;;;;;17.70;13.70;;;;;;;13.01;58.23;101604.56;106924;1257;25346;-56
2024/02/23 03:59:37;;;;;;;23.80;15.50;;;;;;;13.00;58.30;101601.80;106830;1269;25462;-57
2024/02/23 04:02:05;;;;;;;27.30;15.60;;;;;;;12.98;58.29;101599.91;106842;1273;25334;-56
2024/02/23 04:04:33;;;;;;;21.60;14.60;;;;;;;12.97;58.38;101602.55;106872;1260;25561;-56
2024/02/23 04:07:00;;;;;;;23.00;15.20;;;;;;;12.97;58.44;101600.11;106846;1270;25331;-56
2024/02/23 04:09:28;;;;;;;21.60;15.80;;;;;;;12.98;58.40;101596.80;106724;1269;25504;-57
2024/02/23 04:11:55;;;;;;;24.90;16.10;;;;;;;12.97;58.45;101603.23;106803;1266;25334;-57
2024/02/23 04:14:22;;;;;;;21.60;16.00;;;;;;;12.98;58.45;101600.61;106739;1269;25421;-58
2024/02/23 04:16:50;;;;;;;23.50;15.20;;;;;;;12.98;58.47;101599.56;106826;1267;25284;-56
2024/02/23 04:19:16;;;;;;;26.00;16.60;;;;;;;12.98;58.55;101598.16;106692;1277;25349;-57
2024/02/23 04:21:43;;;;;;;22.30;15.60;;;;;;;12.99;58.56;101596.07;106634;1264;25360;-57
2024/02/23 04:24:11;;;;;;;21.70;14.80;;;;;;;13.00;58.59;101591.02;106931;1267;25353;-57
2024/02/23 04:26:38;;;;;;;26.30;15.80;;;;;;;13.00;58.55;101592.21;106401;1270;25396;-57
2024/02/23 04:29:05;;;;;;;27.30;17.50;;;;;;;13.00;58.56;101595.00;106842;1265;25354;-57
2024/02/23 04:31:32;;;;;;;26.00;17.10;;;;;;;13.00;58.56;101595.86;106931;1255;22547;-57
2024/02/23 04:33:59;;;;;;;26.10;16.20;;;;;;;13.00;58.55;101594.81;106381;1267;1003565;-58
2024/02/23 04:36:26;;;;;;;23.00;16.40;;;;;;;13.00;58.57;101594.30;107078;1267;25359;-56
2024/02/23 04:38:53;;;;;;;22.70;15.90;;;;;;;13.00;58.62;101592.73;107111;1261;25330;-57
2024/02/23 04:41:22;;;;;;;27.40;16.60;;;;;;;13.00;58.56;101592.23;107089;1261;25389;-57
2024/02/23 04:43:49;;;;;;;26.20;17.10;;;;;;;13.00;58.61;101593.79;107144;1260;25439;-57
2024/02/23 04:46:16;;;;;;;24.70;17.20;;;;;;;12.99;58.54;101597.10;106083;1268;1003576;-57
2024/02/23 04:48:43;;;;;;;30.40;17.30;;;;;;;12.99;58.63;101593.64;107082;1261;23335;-57
2024/02/23 04:51:11;;;;;;;23.90;17.60;;;;;;;12.99;58.66;101591.71;106978;1264;25450;-56
2024/02/23 04:53:38;;;;;;;25.40;17.00;;;;;;;13.00;58.70;101583.33;106997;1254;25379;-57
2024/02/23 04:56:05;;;;;;;28.10;17.50;;;;;;;13.01;58.71;101584.00;107016;1262;25356;-57
2024/02/23 04:58:32;;;;;;;29.20;17.80;;;;;;;13.01;58.69;101583.83;107203;1257;25352;-58
2024/02/23 05:01:00;;;;;;;25.60;17.30;;;;;;;13.02;58.78;101585.55;107122;1257;25348;-57
2024/02/23 05:03:27;;;;;;;27.80;17.30;;;;;;;13.02;58.71;101593.39;106636;1254;565195;-57
2024/02/23 05:05:54;;;;;;;28.90;18.00;;;;;;;13.03;58.77;101596.88;106828;1265;25383;-58
2024/02/23 05:08:21;;;;;;;27.60;18.10;;;;;;;13.04;58.75;101610.63;107088;1265;22714;-56
2024/02/23 05:10:48;;;;;;;27.90;17.10;;;;;;;13.04;58.79;101614.80;106841;1260;25388;-57
2024/02/23 05:13:15;;;;;;;28.10;17.50;;;;;;;13.05;58.81;101618.80;106776;1268;25411;-57
2024/02/23 05:15:42;;;;;;;26.80;16.80;;;;;;;13.06;58.82;101621.91;107111;1255;25361;-57
2024/02/23 05:18:09;;;;;;;25.10;17.80;;;;;;;13.07;58.82;101626.61;107024;1263;25369;-57
2024/02/23 05:20:37;;;;;;;29.10;17.70;;;;;;;13.09;58.86;101627.80;107039;1267;25353;-56
2024/02/23 05:23:04;;;;;;;26.60;17.30;;;;;;;13.11;58.90;101626.89;106958;1264;25348;-56
2024/02/23 05:25:31;;;;;;;28.70;17.70;;;;;;;13.13;58.85;101625.98;106975;1254;25417;-56
2024/02/23 05:27:58;;;;;;;23.80;16.50;;;;;;;13.15;58.89;101619.70;106765;1261;25407;-56
2024/02/23 05:30:27;;;;;;;24.20;17.30;;;;;;;13.16;58.85;101620.20;106159;1271;1003063;-56
2024/02/23 05:32:54;;;;;;;27.70;16.50;;;;;;;13.18;58.85;101622.60;107076;1257;25345;-56
2024/02/23 05:35:21;;;;;;;29.30;17.00;;;;;;;13.19;58.79;101622.23;107023;1257;25415;-56
2024/02/23 05:37:49;;;;;;;26.00;16.70;;;;;;;13.20;58.72;101624.28;107113;1251;25368;-57
2024/02/23 05:40:17;;;;;;;26.60;16.30;;;;;;;13.22;58.69;101625.13;107286;1257;25526;-59
2024/02/23 05:42:44;;;;;;;26.50;16.60;;;;;;;13.23;58.68;101630.69;106155;1259;1003306;-57
2024/02/23 05:45:11;;;;;;;21.40;16.10;;;;;;;13.24;58.62;101628.58;106826;1260;25361;-57
2024/02/23 05:47:38;;;;;;;22.70;16.60;;;;;;;13.25;58.59;101630.28;107000;1257;24367;-57
2024/02/23 05:50:07;;;;;;;25.10;15.90;;;;;;;13.27;58.61;101630.77;107082;1258;25474;-56
2024/02/23 05:52:36;;;;;;;25.50;16.20;;;;;;;13.29;58.59;101634.93;106762;1267;24176;-58
2024/02/23 05:55:03;;;;;;;28.10;17.40;;;;;;;13.30;58.53;101634.04;106924;1267;25362;-56
2024/02/23 05:57:31;;;;;;;23.60;16.20;;;;;;;13.32;58.48;101636.79;107022;1256;25476;-56
2024/02/23 05:59:58;;;;;;;22.20;15.60;;;;;;;13.33;58.38;101644.42;106844;1270;25351;-57
2024/02/23 06:02:25;;;;;;;25.20;15.10;;;;;;;13.33;58.39;101644.95;107038;1266;25428;-57
2024/02/23 06:04:52;;;;;;;22.90;15.90;;;;;;;13.34;58.37;101646.31;107100;1258;23927;-56
2024/02/23 06:07:22;;;;;;;25.60;15.50;;;;;;;13.35;58.34;101646.13;106873;1256;22533;-55
2024/02/23 06:09:49;;;;;;;24.60;16.30;;;;;;;13.38;58.27;101647.99;107007;1266;22526;-55
2024/02/23 06:12:15;;;;;;;30.00;16.90;;;;;;;13.39;58.21;101646.40;107024;1258;25366;-55
2024/02/23 06:14:43;;;;;;;23.90;16.40;;;;;;;13.42;58.21;101644.42;106776;1260;25361;-55
2024/02/23 06:17:10;;;;;;;28.00;16.40;;;;;;;13.45;58.14;101646.63;106774;1260;25361;-56
2024/02/23 06:19:37;;;;;;;31.10;16.80;;;;;;;13.48;58.07;101645.34;107219;1257;25386;-56
2024/02/23 06:22:06;;;;;;;36.10;16.40;;;;;;;13.52;58.08;101643.02;106930;1260;25338;-56
2024/02/23 06:24:33;;;;;;;28.30;16.40;;;;;;;13.56;58.01;101640.84;107037;1257;25356;-56
2024/02/23 06:27:00;;;;;;;26.00;16.30;;;;;;;13.61;57.88;101641.25;106750;1262;25964;-56
2024/02/23 06:29:27;;;;;;;25.00;15.70;;;;;;;13.65;57.78;101639.42;106922;1267;25396;-57
2024/02/23 06:31:55;;;;;;;20.50;14.60;;;;;;;13.71;57.68;101643.67;107133;1254;25502;-56
2024/02/23 06:34:22;;;;;;;24.50;15.80;;;;;;;13.76;57.65;101646.17;106960;1267;25646;-57
2024/02/23 06:36:49;;;;;;;30.70;16.30;;;;;;;13.82;57.46;101644.99;106977;1272;22522;-55
2024/02/23 06:39:18;;;;;;;27.70;16.40;;;;;;;13.86;57.32;101651.36;106838;1270;25414;-56
2024/02/23 06:41:45;;;;;;;20.30;15.40;;;;;;;13.90;57.13;101649.53;106946;1270;25414;-56
2024/02/23 06:44:12;;;;;;;26.30;15.90;;;;;;;13.95;56.92;101653.10;107080;1267;25362;-55
2024/02/23 06:46:40;;;;;;;22.60;15.40;;;;;;;13.97;56.78;101652.54;107138;1267;25393;-55
2024/02/23 06:49:07;;;;;;;22.20;16.00;;;;;;;14.00;56.65;101655.44;107078;1257;25373;-56
2024/02/23 06:51:35;;;;;;;24.40;15.80;;;;;;;14.03;56.56;101651.02;107018;1253;22573;-56
2024/02/23 06:54:03;;;;;;;24.20;15.90;;;;;;;14.05;56.44;101651.66;106912;1260;25402;-56
2024/02/23 06:56:30;;;;;;;28.60;15.60;;;;;;;14.06;56.26;101650.24;107132;1256;25487;-56
2024/02/23 06:58:58;;;;;;;25.10;15.80;;;;;;;14.07;56.22;101653.88;107166;1264;25367;-57
2024/02/23 07:01:25;;;;;;;26.00;15.70;;;;;;;14.09;56.06;101656.80;106933;1267;25399;-56
2024/02/23 07:03:52;;;;;;;23.90;15.00;;;;;;;14.10;56.08;101657.65;107092;1267;22537;-56
2024/02/23 07:06:19;;;;;;;24.70;16.40;;;;;;;14.13;56.04;101663.16;106868;1267;25341;-56
2024/02/23 07:08:46;;;;;;;25.50;16.00;;;;;;;14.14;55.92;101660.35;107045;1267;25380;-56
2024/02/23 07:11:13;;;;;;;25.70;16.20;;;;;;;14.17;55.81;101662.56;107000;1274;25367;-55
2024/02/23 07:13:43;;;;;;;28.20;16.20;;;;;;;14.18;55.72;101655.90;106699;1267;25341;-55
2024/02/23 07:16:11;;;;;;;28.40;15.60;;;;;;;14.20;55.71;101649.94;107036;1267;24291;-55
2024/02/23 07:18:41;;;;;;;20.00;14.20;;;;;;;14.23;55.72;101650.21;106831;1267;25530;-56
2024/02/23 07:21:08;;;;;;;26.80;15.60;;;;;;;14.25;55.61;101647.53;106910;1269;22530;-55
2024/02/23 07:23:35;;;;;;;27.60;16.20;;;;;;;14.27;55.47;101647.16;107117;1256;25357;-54
2024/02/23 07:26:02;;;;;;;26.90;15.70;;;;;;;14.31;55.53;101646.38;106397;1267;1002964;-56
2024/02/23 07:28:30;;;;;;;22.60;14.80;;;;;;;14.35;55.56;101648.38;107031;1267;25352;-56
2024/02/23 07:30:57;;;;;;;23.00;14.80;;;;;;;14.41;55.37;101643.89;107145;1251;25495;-55
2024/02/23 07:33:24;;;;;;;28.20;15.70;;;;;;;14.46;55.30;101641.67;107061;1255;25366;-56
2024/02/23 07:35:52;;;;;;;23.10;15.80;;;;;;;14.52;55.22;101634.73;107082;1267;25366;-56
2024/02/23 07:38:19;;;;;;;28.60;14.70;;;;;;;14.58;55.10;101635.78;107032;1267;25480;-55
2024/02/23 07:40:46;;;;;;;24.00;15.80;;;;;;;14.64;54.91;101635.45;107050;1267;25400;-55
2024/02/23 07:43:14;;;;;;;24.70;15.90;;;;;;;14.71;54.88;101630.77;107207;1267;23242;-55
2024/02/23 07:45:42;;;;;;;27.70;15.20;;;;;;;14.78;54.78;101631.64;107035;1267;25483;-55
2024/02/23 07:48:09;;;;;;;23.90;15.20;;;;;;;14.86;54.57;101634.06;107041;1269;25410;-55
2024/02/23 07:50:36;;;;;;;23.20;14.60;;;;;;;14.93;54.39;101634.40;107187;1267;25535;-56
2024/02/23 07:53:04;;;;;;;28.60;15.70;;;;;;;14.98;54.11;101629.90;107068;1267;25412;-56
2024/02/23 07:55:31;;;;;;;27.30;15.10;;;;;;;15.02;53.93;101632.07;106824;1273;22530;-56
2024/02/23 07:58:01;;;;;;;24.50;14.70;;;;;;;15.04;53.85;101630.45;106971;1267;24226;-55
2024/02/23 08:00:28;;;;;;;24.00;14.90;;;;;;;15.07;53.74;101632.96;107062;1267;25338;-56
2024/02/23 08:02:59;;;;;;;26.90;15.00;;;;;;;15.10;53.63;101627.31;107030;1267;25500;-56
2024/02/23 08:05:26;;;;;;;29.60;15.30;;;;;;;15.12;53.51;101627.77;107016;1274;25307;-56
2024/02/23 08:07:54;;;;;;;23.40;15.30;;;;;;;15.14;53.36;101622.66;107086;1267;25341;-55
2024/02/23 08:10:21;;;;;;;23.00;14.40;;;;;;;15.16;53.30;101620.34;107046;1267;23293;-55
2024/02/23 08:12:48;;;;;;;23.60;14.50;;;;;;;15.16;53.26;101617.52;106374;1263;1002726;-56
2024/02/23 08:15:15;;;;;;;24.90;15.70;;;;;;;15.19;53.20;101615.70;107029;1269;25571;-56
2024/02/23 08:17:42;;;;;;;24.30;14.60;;;;;;;15.22;53.10;101618.92;107069;1267;25356;-56
2024/02/23 08:20:10;;;;;;;22.80;15.20;;;;;;;15.24;52.93;101613.48;106679;1274;25428;-56
2024/02/23 08:22:38;;;;;;;27.20;15.10;;;;;;;15.25;52.77;101614.67;106815;1267;22660;-56
2024/02/23 08:25:05;;;;;;;24.40;14.10;;;;;;;15.25;52.67;101619.05;107122;1267;22556;-56
2024/02/23 08:27:32;;;;;;;20.50;14.60;;;;;;;15.25;52.69;101621.14;107019;1267;22526;-56
2024/02/23 08:29:59;;;;;;;32.80;17.10;;;;;;;15.27;52.62;101627.02;107058;1267;25398;-55
2024/02/23 08:32:27;;;;;;;23.50;14.00;;;;;;;15.29;52.54;101627.48;107218;1267;25356;-55
2024/02/23 08:34:59;;;;;;;28.40;14.50;;;;;;;15.32;52.45;101627.23;106990;1260;25488;-56
2024/02/23 08:37:26;;;;;;;21.30;15.00;;;;;;;15.35;52.33;101622.06;106911;1276;25439;-55
2024/02/23 08:39:54;;;;;;;26.40;16.30;;;;;;;15.38;52.32;101623.92;107053;1267;25417;-55
2024/02/23 08:42:21;;;;;;;25.40;15.10;;;;;;;15.40;52.10;101625.94;106913;1267;25353;-56
2024/02/23 08:44:48;;;;;;;25.50;14.60;;;;;;;15.42;52.04;101628.54;106909;1270;25425;-56
2024/02/23 08:47:15;;;;;;;25.90;16.70;;;;;;;15.45;51.99;101631.63;106977;1267;25538;-56
2024/02/23 08:49:43;;;;;;;25.20;14.50;;;;;;;15.49;51.88;101634.83;107057;1267;25366;-56
2024/02/23 08:52:10;;;;;;;23.20;13.90;;;;;;;15.52;51.69;101633.16;106978;1272;24276;-55
2024/02/23 08:54:37;;;;;;;22.80;14.30;;;;;;;15.54;51.67;101632.59;107092;1269;25343;-55
2024/02/23 08:57:05;;;;;;;21.20;14.00;;;;;;;15.55;51.49;101632.04;106990;1267;25382;-55
2024/02/23 08:59:32;;;;;;;24.10;14.10;;;;;;;15.56;51.40;101638.14;107130;1267;25399;-55
2024/02/23 09:01:59;;;;;;;21.60;14.50;;;;;;;15.58;51.36;101639.14;107008;1267;24228;-54
2024/02/23 09:04:27;;;;;;;26.40;14.80;;;;;;;15.60;51.36;101635.90;107168;1267;23350;-56
2024/02/23 09:06:54;;;;;;;24.40;14.60;;;;;;;15.64;51.29;101638.95;107169;1267;25428;-55
2024/02/23 09:09:21;;;;;;;21.80;13.90;;;;;;;15.68;51.12;101643.55;106879;1267;25338;-55
2024/02/23 09:11:49;;;;;;;25.00;13.00;;;;;;;15.71;51.13;101648.88;106791;1267;25369;-55
2024/02/23 09:14:16;;;;;;;27.70;15.10;;;;;;;15.76;50.99;101648.73;106878;1267;22530;-55
2024/02/23 09:16:43;;;;;;;23.70;14.60;;;;;;;15.82;50.77;101648.58;106690;1275;25332;-56
2024/02/23 09:19:10;;;;;;;22.30;13.90;;;;;;;15.86;50.55;101649.13;106637;1270;25415;-55
2024/02/23 09:21:37;;;;;;;25.20;14.50;;;;;;;15.90;50.36;101650.43;106652;1270;25389;-55
2024/02/23 09:24:05;;;;;;;26.10;13.80;;;;;;;15.91;50.35;101646.71;106997;1267;25571;-55
2024/02/23 09:26:32;;;;;;;22.30;13.80;;;;;;;15.94;50.23;101651.35;106663;1267;25400;-55
2024/02/23 09:28:59;;;;;;;25.00;13.50;;;;;;;15.97;50.19;101648.82;106833;1267;23278;-55
2024/02/23 09:31:28;;;;;;;21.20;12.50;;;;;;;15.96;50.19;101651.63;106852;1274;25341;-56
2024/02/23 09:33:55;;;;;;;23.60;12.30;;;;;;;15.99;50.08;101649.98;107071;1268;22562;-55
2024/02/23 09:36:23;;;;;;;21.80;13.00;;;;;;;16.03;50.01;101653.02;107068;1269;24306;-56
2024/02/23 09:38:50;;;;;;;23.40;13.00;;;;;;;16.06;49.87;101654.31;107135;1268;23898;-55
2024/02/23 09:41:21;;;;;;;20.50;12.10;;;;;;;16.09;49.76;101652.80;107086;1267;25424;-54
2024/02/23 09:43:49;;;;;;;18.80;13.20;;;;;;;16.11;49.52;101656.42;106932;1271;22613;-56
2024/02/23 09:46:17;;;;;;;19.60;11.90;;;;;;;16.15;49.49;101654.58;107063;1252;25361;-56
2024/02/23 09:48:44;;;;;;;20.00;12.30;;;;;;;16.16;49.38;101655.06;107119;1268;22517;-55
2024/02/23 09:51:12;;;;;;;25.00;14.50;;;;;;;16.18;49.39;101655.89;106992;1268;25376;-56
2024/02/23 09:53:39;;;;;;;22.20;13.00;;;;;;;16.19;49.14;101656.52;107057;1274;25410;-56
2024/02/23 09:56:06;;;;;;;19.30;13.30;;;;;;;16.20;49.08;101659.86;107031;1267;25377;-55
2024/02/23 09:58:34;;;;;;;22.40;12.40;;;;;;;16.19;49.03;101658.46;107149;1268;25852;-55
2024/02/23 10:01:04;;;;;;;25.50;12.60;;;;;;;16.18;49.00;101655.70;107133;1267;22547;-55
2024/02/23 10:03:32;;;;;;;21.30;12.30;;;;;;;16.16;48.96;101656.63;107204;1266;25410;-55
2024/02/23 10:06:01;;;;;;;21.80;12.80;;;;;;;16.15;49.00;101654.20;106979;1267;22551;-56
2024/02/23 10:08:28;;;;;;;18.60;12.10;;;;;;;16.14;49.00;101655.98;106820;1268;24235;-56
2024/02/23 10:10:55;;;;;;;25.00;12.60;;;;;;;16.14;48.99;101653.55;107218;1268;25351;-55
2024/02/23 10:13:26;;;;;;;27.00;12.80;;;;;;;16.13;49.05;101653.77;107088;1267;25440;-55
2024/02/23 10:15:53;;;;;;;25.80;12.00;;;;;;;16.13;49.02;101654.98;107097;1267;22520;-55
2024/02/23 10:18:40;;;;;;;21.70;11.40;;;;;;;16.14;48.95;101653.02;106756;1267;25480;-55
2024/02/23 10:21:08;;;;;;;26.20;14.00;;;;;;;16.12;48.96;101653.25;107061;1267;25361;-56
2024/02/23 10:23:35;;;;;;;19.90;12.10;;;;;;;16.11;48.99;101653.98;107075;1267;22539;-56
2024/02/23 10:26:06;;;;;;;25.50;12.50;;;;;;;16.10;49.04;101653.66;106883;1270;25522;-55
2024/02/23 10:28:35;;;;;;;21.00;11.60;;;;;;;16.10;49.11;101654.71;107130;1253;23867;-56
2024/02/23 10:31:02;;;;;;;25.40;12.50;;;;;;;16.12;49.12;101657.30;106748;1259;25399;-55
2024/02/23 10:33:30;;;;;;;26.90;11.90;;;;;;;16.13;49.15;101651.48;107062;1268;25380;-55
2024/02/23 10:35:58;;;;;;;22.20;12.60;;;;;;;16.14;49.02;101652.30;107099;1267;22585;-55
2024/02/23 10:38:29;;;;;;;19.60;11.70;;;;;;;16.14;49.07;101645.48;107050;1269;22792;-55
2024/02/23 10:40:56;;;;;;;21.20;11.40;;;;;;;16.14;49.13;101641.98;107077;1266;25454;-54
2024/02/23 10:43:34;;;;;;;17.60;12.10;;;;;;;16.15;49.25;101644.77;106878;1267;25483;-54
2024/02/23 10:46:03;;;;;;;18.30;11.60;;;;;;;16.17;49.27;101645.23;107025;1267;25742;-55
2024/02/23 10:48:31;;;;;;;16.30;10.60;;;;;;;16.20;49.15;101646.72;106945;1267;25401;-56
2024/02/23 10:50:58;;;;;;;21.20;10.60;;;;;;;16.22;49.02;101643.13;106895;1273;22528;-55
2024/02/23 10:53:26;;;;;;;20.40;12.00;;;;;;;16.24;48.99;101644.32;107082;1269;25412;-55
2024/02/23 10:55:57;;;;;;;20.60;12.00;;;;;;;16.23;49.03;101643.11;106982;1269;25399;-55
2024/02/23 10:58:25;;;;;;;21.20;12.00;;;;;;;16.22;49.05;101639.13;106785;1259;25243;-55
2024/02/23 11:00:53;;;;;;;23.40;12.20;;;;;;;16.21;49.03;101640.72;107019;1267;25418;-55
2024/02/23 11:03:20;;;;;;;20.90;11.00;;;;;;;16.21;49.07;101646.14;107220;1267;22524;-55